Terminal Aerodrome Forecast
Issued by NWS

Current Version | Previous Version | Text Only | Print | Product List | Glossary Off
Versions: 1 2 3 4 5 6 7 8 9 10 11 12 13 14 15 16 17 18 19 20

000
FTUS41 KRNK 201125
TAFLWB
TAF
KLWB 201125Z 2012/2112 00000KT 1/4SM FG OVC001
     FM201330 03003KT 4SM BR SCT005 SCT025
     FM201400 35004KT P6SM SCT060
     FM201800 31005KT P6SM SCT050
     FM210000 VRB03KT P6SM SKC
     FM210700 00000KT 1/4SM FG OVC001=

USA.gov is the U.S. government's official web portal to all federal, state and local government web resources and services.